Wetterdaten: Woche 29.06.15 - 05.07.15 (KW27)
Datum Zeit Temperatur Luftfeuchte Luftdruck Niederschlag Windrichtung Sonnenschein Solar Wind
29.06.2015 00:00 15,1 C 84 % 1019,0 hPa 0,0 l/m N 0,00 h 0 W/m 1,1 km/h (0 Bft)
29.06.2015 01:00 14,4 C 84 % 1018,8 hPa 0,0 l/m N 0,00 h 0 W/m 0,4 km/h (0 Bft)
29.06.2015 02:00 13,8 C 87 % 1018,7 hPa 0,0 l/m N 0,00 h 0 W/m 0,4 km/h (0 Bft)
29.06.2015 03:00 13,1 C 90 % 1018,6 hPa 0,0 l/m N 0,00 h 0 W/m 0,1 km/h (0 Bft)
29.06.2015 04:00 12,2 C 93 % 1018,3 hPa 0,0 l/m N 0,00 h 0 W/m 0,0 km/h (0 Bft)
29.06.2015 05:00 12,0 C 95 % 1018,4 hPa 0,0 l/m N 0,00 h 9 W/m 0,0 km/h (0 Bft)
29.06.2015 06:00 12,4 C 95 % 1018,5 hPa 0,0 l/m N 0,00 h 31 W/m 0,0 km/h (0 Bft)
29.06.2015 07:00 13,4 C 94 % 1018,8 hPa 0,0 l/m N 0,00 h 102 W/m 0,0 km/h (0 Bft)
29.06.2015 08:00 15,4 C 88 % 1019,3 hPa 0,0 l/m O 0,00 h 139 W/m 0,4 km/h (0 Bft)
29.06.2015 09:00 17,2 C 87 % 1019,5 hPa 0,0 l/m O-SO 0,17 h 258 W/m 4,5 km/h (1 Bft)
29.06.2015 10:00 19,5 C 80 % 1019,3 hPa 0,0 l/m SW 0,58 h 419 W/m 8,8 km/h (2 Bft)
29.06.2015 11:00 21,7 C 68 % 1019,2 hPa 0,0 l/m W-NW 0,83 h 687 W/m 7,4 km/h (2 Bft)
29.06.2015 12:00 23,3 C 57 % 1019,0 hPa 0,0 l/m W-NW 1,00 h 811 W/m 8,9 km/h (2 Bft)
29.06.2015 13:00 24,7 C 51 % 1018,9 hPa 0,0 l/m NW 0,83 h 712 W/m 11,8 km/h (2 Bft)
29.06.2015 14:00 25,1 C 50 % 1018,8 hPa 0,0 l/m W-NW 0,92 h 589 W/m 9,8 km/h (2 Bft)
29.06.2015 15:00 26,3 C 45 % 1018,5 hPa 0,0 l/m W-NW 0,92 h 850 W/m 10,6 km/h (2 Bft)
29.06.2015 16:00 26,6 C 43 % 1018,3 hPa 0,0 l/m N 0,67 h 605 W/m 9,4 km/h (2 Bft)
29.06.2015 17:00 26,2 C 44 % 1018,2 hPa 0,0 l/m NO 0,67 h 412 W/m 6,8 km/h (2 Bft)
29.06.2015 18:00 26,1 C 45 % 1018,2 hPa 0,0 l/m W-NW 0,92 h 413 W/m 6,8 km/h (2 Bft)
29.06.2015 19:00 24,9 C 56 % 1018,3 hPa 0,0 l/m W 0,83 h 200 W/m 5,5 km/h (1 Bft)
29.06.2015 20:00 23,3 C 62 % 1018,5 hPa 0,0 l/m N 0,00 h 38 W/m 0,9 km/h (0 Bft)
29.06.2015 21:00 21,4 C 71 % 1018,8 hPa 0,0 l/m N 0,00 h 7 W/m 0,4 km/h (0 Bft)
29.06.2015 22:00 19,6 C 75 % 1019,1 hPa 0,0 l/m N 0,00 h 0 W/m 0,0 km/h (0 Bft)
29.06.2015 23:00 18,1 C 79 % 1019,2 hPa 0,0 l/m N 0,00 h 0 W/m 0,0 km/h (0 Bft)
30.06.2015 00:00 17,5 C 82 % 1019,0 hPa 0,0 l/m N 0,00 h 0 W/m 0,0 km/h (0 Bft)
30.06.2015 01:00 16,6 C 85 % 1018,8 hPa 0,0 l/m N 0,00 h 0 W/m 0,0 km/h (0 Bft)
30.06.2015 02:00 15,8 C 87 % 1018,5 hPa 0,0 l/m N 0,00 h 0 W/m 0,0 km/h (0 Bft)
30.06.2015 03:00 15,0 C 90 % 1018,3 hPa 0,0 l/m N 0,00 h 0 W/m 0,0 km/h (0 Bft)
30.06.2015 04:00 14,4 C 92 % 1018,1 hPa 0,0 l/m N 0,00 h 0 W/m 0,0 km/h (0 Bft)
30.06.2015 05:00 13,8 C 94 % 1018,3 hPa 0,0 l/m N 0,00 h 9 W/m 0,0 km/h (0 Bft)
30.06.2015 06:00 14,4 C 94 % 1018,5 hPa 0,0 l/m N 0,00 h 58 W/m 0,0 km/h (0 Bft)
30.06.2015 07:00 16,9 C 85 % 1018,4 hPa 0,0 l/m N 0,92 h 198 W/m 0,0 km/h (0 Bft)
30.06.2015 08:00 19,6 C 73 % 1018,4 hPa 0,0 l/m W 1,00 h 358 W/m 3,3 km/h (1 Bft)
30.06.2015 09:00 21,7 C 67 % 1018,3 hPa 0,0 l/m W-SW 1,00 h 520 W/m 6,3 km/h (2 Bft)
30.06.2015 10:00 23,9 C 59 % 1017,9 hPa 0,0 l/m W-SW 1,00 h 667 W/m 6,3 km/h (2 Bft)
30.06.2015 11:00 25,6 C 49 % 1017,8 hPa 0,0 l/m SW 1,00 h 793 W/m 7,1 km/h (2 Bft)
30.06.2015 12:00 26,5 C 46 % 1017,6 hPa 0,0 l/m N-NO 1,00 h 875 W/m 7,6 km/h (2 Bft)
30.06.2015 13:00 27,2 C 43 % 1017,4 hPa 0,0 l/m NO 1,00 h 910 W/m 8,7 km/h (2 Bft)
30.06.2015 14:00 28,1 C 40 % 1017,1 hPa 0,0 l/m NO 1,00 h 881 W/m 11,3 km/h (2 Bft)
30.06.2015 15:00 28,7 C 38 % 1016,7 hPa 0,0 l/m NO 1,00 h 819 W/m 10,8 km/h (2 Bft)
30.06.2015 16:00 29,4 C 36 % 1016,1 hPa 0,0 l/m O-SO 1,00 h 714 W/m 12,4 km/h (3 Bft)
30.06.2015 17:00 29,3 C 38 % 1015,8 hPa 0,0 l/m O-SO 1,00 h 577 W/m 10,6 km/h (2 Bft)
30.06.2015 18:00 28,6 C 39 % 1015,5 hPa 0,0 l/m O-NO 1,00 h 414 W/m 10,5 km/h (2 Bft)
30.06.2015 19:00 27,7 C 43 % 1015,2 hPa 0,0 l/m O 1,00 h 241 W/m 11,6 km/h (2 Bft)
30.06.2015 20:00 25,9 C 49 % 1015,5 hPa 0,0 l/m O 0,08 h 32 W/m 8,0 km/h (2 Bft)
30.06.2015 21:00 22,1 C 65 % 1015,8 hPa 0,0 l/m N 0,00 h 7 W/m 0,9 km/h (0 Bft)
30.06.2015 22:00 19,8 C 72 % 1016,3 hPa 0,0 l/m N 0,00 h 0 W/m 0,0 km/h (0 Bft)
30.06.2015 23:00 18,6 C 74 % 1016,5 hPa 0,0 l/m N 0,00 h 0 W/m 0,0 km/h (0 Bft)
01.07.2015 00:00 17,8 C 79 % 1016,3 hPa 0,0 l/m N 0,00 h 0 W/m 0,0 km/h (0 Bft)
01.07.2015 01:00 17,5 C 81 % 1016,2 hPa 0,0 l/m O 0,00 h 0 W/m 1,2 km/h (1 Bft)
01.07.2015 02:00 17,1 C 83 % 1015,9 hPa 0,0 l/m O 0,00 h 0 W/m 2,4 km/h (1 Bft)
01.07.2015 03:00 16,7 C 84 % 1015,8 hPa 0,0 l/m O-NO 0,00 h 0 W/m 6,8 km/h (2 Bft)
01.07.2015 04:00 16,3 C 85 % 1015,9 hPa 0,0 l/m O-NO 0,00 h 0 W/m 2,8 km/h (1 Bft)
01.07.2015 05:00 15,6 C 89 % 1016,1 hPa 0,0 l/m O-NO 0,00 h 8 W/m 1,6 km/h (1 Bft)
01.07.2015 06:00 16,0 C 87 % 1016,3 hPa 0,0 l/m O-NO 0,00 h 58 W/m 5,1 km/h (1 Bft)
01.07.2015 07:00 17,8 C 78 % 1016,5 hPa 0,0 l/m N-NO 1,00 h 205 W/m 8,6 km/h (2 Bft)
01.07.2015 08:00 19,9 C 73 % 1016,5 hPa 0,0 l/m N-NO 1,00 h 367 W/m 4,9 km/h (1 Bft)
01.07.2015 09:00 22,8 C 65 % 1016,5 hPa 0,0 l/m N-NO 1,00 h 530 W/m 5,3 km/h (1 Bft)
01.07.2015 10:00 25,0 C 60 % 1016,3 hPa 0,0 l/m O 1,00 h 672 W/m 8,6 km/h (2 Bft)
01.07.2015 11:00 27,0 C 54 % 1016,3 hPa 0,0 l/m O-SO 1,00 h 793 W/m 12,0 km/h (2 Bft)
01.07.2015 12:00 28,4 C 46 % 1016,1 hPa 0,0 l/m O-SO 1,00 h 869 W/m 14,4 km/h (3 Bft)
01.07.2015 13:00 29,3 C 43 % 1015,8 hPa 0,0 l/m O-SO 1,00 h 899 W/m 13,3 km/h (3 Bft)
01.07.2015 14:00 30,0 C 39 % 1015,5 hPa 0,0 l/m O-SO 1,00 h 884 W/m 11,4 km/h (2 Bft)
01.07.2015 15:00 31,0 C 36 % 1015,3 hPa 0,0 l/m O-SO 1,00 h 819 W/m 11,7 km/h (2 Bft)
01.07.2015 16:00 31,2 C 37 % 1015,2 hPa 0,0 l/m O-SO 1,00 h 713 W/m 11,9 km/h (2 Bft)
01.07.2015 17:00 31,1 C 36 % 1014,9 hPa 0,0 l/m O-NO 1,00 h 577 W/m 12,0 km/h (2 Bft)
01.07.2015 18:00 30,9 C 36 % 1014,8 hPa 0,0 l/m O 1,00 h 418 W/m 12,6 km/h (3 Bft)
01.07.2015 19:00 29,5 C 43 % 1014,8 hPa 0,0 l/m O 1,00 h 240 W/m 13,2 km/h (3 Bft)
01.07.2015 20:00 27,5 C 51 % 1014,9 hPa 0,0 l/m O 0,08 h 33 W/m 7,9 km/h (2 Bft)
01.07.2015 21:00 24,4 C 65 % 1015,5 hPa 0,0 l/m O 0,00 h 7 W/m 2,4 km/h (1 Bft)
01.07.2015 22:00 22,1 C 73 % 1016,0 hPa 0,0 l/m N 0,00 h 0 W/m 1,9 km/h (1 Bft)
01.07.2015 23:00 21,2 C 74 % 1016,4 hPa 0,0 l/m O 0,00 h 0 W/m 3,1 km/h (1 Bft)
02.07.2015 00:00 20,2 C 76 % 1016,4 hPa 0,0 l/m O 0,00 h 0 W/m 2,1 km/h (1 Bft)
02.07.2015 01:00 19,7 C 77 % 1016,5 hPa 0,0 l/m O 0,00 h 0 W/m 4,4 km/h (1 Bft)
02.07.2015 02:00 19,0 C 81 % 1016,7 hPa 0,0 l/m O 0,00 h 0 W/m 3,1 km/h (1 Bft)
02.07.2015 03:00 18,1 C 85 % 1016,7 hPa 0,0 l/m N 0,00 h 0 W/m 2,1 km/h (1 Bft)
02.07.2015 04:00 17,2 C 88 % 1016,9 hPa 0,0 l/m N 0,00 h 0 W/m 0,3 km/h (0 Bft)
02.07.2015 05:00 16,6 C 91 % 1017,2 hPa 0,0 l/m N 0,00 h 7 W/m 0,3 km/h (0 Bft)
02.07.2015 06:00 17,0 C 91 % 1017,4 hPa 0,0 l/m N 0,00 h 50 W/m 0,8 km/h (0 Bft)
02.07.2015 07:00 19,3 C 83 % 1017,6 hPa 0,0 l/m O 0,83 h 190 W/m 1,6 km/h (1 Bft)
02.07.2015 08:00 21,6 C 76 % 1017,8 hPa 0,0 l/m O 1,00 h 349 W/m 2,9 km/h (1 Bft)
02.07.2015 09:00 23,8 C 70 % 1017,8 hPa 0,0 l/m O 1,00 h 511 W/m 5,1 km/h (1 Bft)
02.07.2015 10:00 25,9 C 62 % 1017,7 hPa 0,0 l/m O 1,00 h 658 W/m 5,3 km/h (1 Bft)
02.07.2015 11:00 27,3 C 57 % 1017,7 hPa 0,0 l/m O 1,00 h 779 W/m 5,1 km/h (1 Bft)
02.07.2015 12:00 29,0 C 53 % 1017,6 hPa 0,0 l/m NO 1,00 h 853 W/m 6,3 km/h (2 Bft)
02.07.2015 13:00 30,7 C 49 % 1017,4 hPa 0,0 l/m O-NO 1,00 h 879 W/m 8,2 km/h (2 Bft)
02.07.2015 14:00 31,7 C 45 % 1017,0 hPa 0,0 l/m O-SO 1,00 h 871 W/m 9,7 km/h (2 Bft)
02.07.2015 15:00 32,3 C 43 % 1016,9 hPa 0,0 l/m O 1,00 h 799 W/m 9,4 km/h (2 Bft)
02.07.2015 16:00 32,9 C 40 % 1016,9 hPa 0,0 l/m O 1,00 h 699 W/m 10,2 km/h (2 Bft)
02.07.2015 17:00 33,0 C 40 % 1017,0 hPa 0,0 l/m O 1,00 h 549 W/m 8,8 km/h (2 Bft)
02.07.2015 18:00 32,5 C 40 % 1016,7 hPa 0,0 l/m O-SO 1,00 h 381 W/m 9,5 km/h (2 Bft)
02.07.2015 19:00 31,3 C 45 % 1016,9 hPa 0,0 l/m O-SO 1,00 h 206 W/m 7,5 km/h (2 Bft)
02.07.2015 20:00 28,7 C 58 % 1017,1 hPa 0,0 l/m O-SO 0,00 h 29 W/m 3,5 km/h (1 Bft)
02.07.2015 21:00 24,6 C 75 % 1017,6 hPa 0,0 l/m N 0,00 h 8 W/m 0,1 km/h (0 Bft)
02.07.2015 22:00 23,5 C 76 % 1018,3 hPa 0,0 l/m N 0,00 h 0 W/m 0,7 km/h (0 Bft)
02.07.2015 23:00 22,6 C 77 % 1018,6 hPa 0,0 l/m N 0,00 h 0 W/m 0,7 km/h (0 Bft)
03.07.2015 00:00 22,3 C 78 % 1018,7 hPa 0,0 l/m N 0,00 h 0 W/m 0,4 km/h (0 Bft)
03.07.2015 01:00 21,5 C 82 % 1018,9 hPa 0,0 l/m O-SO 0,00 h 0 W/m 1,3 km/h (1 Bft)
03.07.2015 02:00 20,4 C 87 % 1019,0 hPa 0,0 l/m N 0,00 h 0 W/m 0,0 km/h (0 Bft)
03.07.2015 03:00 19,6 C 90 % 1019,0 hPa 0,0 l/m N 0,00 h 0 W/m 0,0 km/h (0 Bft)
03.07.2015 04:00 18,8 C 92 % 1019,2 hPa 0,0 l/m N 0,00 h 0 W/m 0,0 km/h (0 Bft)
03.07.2015 05:00 18,3 C 94 % 1019,6 hPa 0,0 l/m N 0,00 h 8 W/m 0,0 km/h (0 Bft)
03.07.2015 06:00 18,7 C 94 % 1019,9 hPa 0,0 l/m N 0,00 h 36 W/m 0,0 km/h (0 Bft)
03.07.2015 07:00 19,6 C 92 % 1020,1 hPa 0,0 l/m N 0,00 h 101 W/m 0,3 km/h (0 Bft)
03.07.2015 08:00 20,9 C 88 % 1020,6 hPa 0,0 l/m N 0,00 h 52 W/m 0,9 km/h (0 Bft)
03.07.2015 09:00 20,1 C 90 % 1020,9 hPa 28,0 l/m N 0,00 h 18 W/m 16,6 km/h (3 Bft)
03.07.2015 10:00 19,6 C 96 % 1021,0 hPa 0,0 l/m W-SW 0,00 h 68 W/m 3,2 km/h (1 Bft)
03.07.2015 11:00 20,5 C 97 % 1021,2 hPa 0,0 l/m S-SW 0,00 h 186 W/m 1,2 km/h (1 Bft)
03.07.2015 12:00 24,1 C 85 % 1021,0 hPa 0,0 l/m SO 1,00 h 767 W/m 4,7 km/h (1 Bft)
03.07.2015 13:00 27,7 C 66 % 1020,9 hPa 0,2 l/m O-SO 1,00 h 832 W/m 6,8 km/h (2 Bft)
03.07.2015 14:00 29,8 C 54 % 1020,4 hPa 0,0 l/m O-SO 1,00 h 822 W/m 8,2 km/h (2 Bft)
03.07.2015 15:00 31,1 C 56 % 1020,0 hPa 0,0 l/m O-NO 1,00 h 758 W/m 7,8 km/h (2 Bft)
03.07.2015 16:00 32,1 C 49 % 1019,5 hPa 0,0 l/m O 1,00 h 663 W/m 12,6 km/h (3 Bft)
03.07.2015 17:00 31,9 C 45 % 1019,3 hPa 0,0 l/m O 0,58 h 358 W/m 11,0 km/h (2 Bft)
03.07.2015 18:00 27,8 C 64 % 1020,0 hPa 0,0 l/m O-NO 0,00 h 82 W/m 4,3 km/h (1 Bft)
03.07.2015 19:00 25,9 C 73 % 1019,9 hPa 0,0 l/m O-SO 0,00 h 32 W/m 4,4 km/h (1 Bft)
03.07.2015 20:00 25,3 C 73 % 1018,5 hPa 0,0 l/m N-NW 0,08 h 30 W/m 10,2 km/h (2 Bft)
03.07.2015 21:00 24,3 C 75 % 1018,8 hPa 0,0 l/m N 0,25 h 13 W/m 2,1 km/h (1 Bft)
03.07.2015 22:00 22,1 C 82 % 1019,5 hPa 0,0 l/m N 0,00 h 0 W/m 1,1 km/h (0 Bft)
03.07.2015 23:00 21,2 C 84 % 1019,6 hPa 0,0 l/m N-NW 0,00 h 0 W/m 1,5 km/h (1 Bft)
04.07.2015 00:00 20,7 C 86 % 1019,4 hPa 0,0 l/m N-NW 0,00 h 0 W/m 2,3 km/h (1 Bft)
04.07.2015 01:00 20,2 C 88 % 1019,3 hPa 0,0 l/m N-NW 0,00 h 0 W/m 2,0 km/h (1 Bft)
04.07.2015 02:00 19,2 C 91 % 1019,0 hPa 0,0 l/m N 0,00 h 0 W/m 0,3 km/h (0 Bft)
04.07.2015 03:00 18,7 C 93 % 1018,7 hPa 0,0 l/m N 0,00 h 0 W/m 0,4 km/h (0 Bft)
04.07.2015 04:00 18,0 C 94 % 1018,5 hPa 0,0 l/m N 0,00 h 0 W/m 0,1 km/h (0 Bft)
04.07.2015 05:00 17,7 C 95 % 1018,6 hPa 0,0 l/m N 0,00 h 9 W/m 0,3 km/h (0 Bft)
04.07.2015 06:00 17,9 C 96 % 1018,8 hPa 0,0 l/m N 0,00 h 49 W/m 1,2 km/h (1 Bft)
04.07.2015 07:00 19,8 C 90 % 1019,0 hPa 0,0 l/m N-NW 0,50 h 167 W/m 3,2 km/h (1 Bft)
04.07.2015 08:00 22,6 C 82 % 1019,0 hPa 0,0 l/m N-NW 1,00 h 321 W/m 2,8 km/h (1 Bft)
04.07.2015 09:00 24,9 C 79 % 1018,9 hPa 0,0 l/m W-SW 1,00 h 480 W/m 8,2 km/h (2 Bft)
04.07.2015 10:00 26,9 C 72 % 1018,9 hPa 0,0 l/m S-SW 0,92 h 596 W/m 10,6 km/h (2 Bft)
04.07.2015 11:00 28,2 C 69 % 1018,7 hPa 0,0 l/m S-SW 1,00 h 716 W/m 14,0 km/h (3 Bft)
04.07.2015 12:00 29,9 C 60 % 1018,5 hPa 0,0 l/m SW 1,00 h 808 W/m 14,1 km/h (3 Bft)
04.07.2015 13:00 31,1 C 50 % 1018,1 hPa 0,0 l/m W-SW 1,00 h 806 W/m 13,3 km/h (3 Bft)
04.07.2015 14:00 32,0 C 47 % 1017,6 hPa 0,0 l/m SW 1,00 h 820 W/m 12,9 km/h (3 Bft)
04.07.2015 15:00 32,8 C 47 % 1017,2 hPa 0,0 l/m SW 1,00 h 752 W/m 10,9 km/h (2 Bft)
04.07.2015 16:00 33,0 C 48 % 1016,9 hPa 0,0 l/m SW 1,00 h 591 W/m 11,8 km/h (2 Bft)
04.07.2015 17:00 31,1 C 55 % 1016,7 hPa 0,0 l/m W-SW 0,25 h 198 W/m 5,9 km/h (2 Bft)
04.07.2015 18:00 27,9 C 64 % 1016,9 hPa 0,0 l/m NW 0,08 h 76 W/m 5,8 km/h (1 Bft)
04.07.2015 19:00 28,5 C 63 % 1016,4 hPa 0,0 l/m NW 1,00 h 247 W/m 2,1 km/h (1 Bft)
04.07.2015 20:00 26,5 C 72 % 1016,6 hPa 0,0 l/m N 0,25 h 50 W/m 2,0 km/h (1 Bft)
04.07.2015 21:00 24,4 C 80 % 1016,7 hPa 0,0 l/m N 0,00 h 8 W/m 0,4 km/h (0 Bft)
04.07.2015 22:00 22,8 C 83 % 1016,8 hPa 0,0 l/m N 0,00 h 0 W/m 0,8 km/h (0 Bft)
04.07.2015 23:00 21,6 C 84 % 1016,6 hPa 0,0 l/m N 0,00 h 0 W/m 0,5 km/h (0 Bft)
05.07.2015 00:00 20,8 C 84 % 1016,5 hPa 0,0 l/m NW 0,00 h 0 W/m 0,9 km/h (0 Bft)
05.07.2015 01:00 20,0 C 88 % 1016,4 hPa 0,0 l/m N 0,00 h 0 W/m 0,0 km/h (0 Bft)
05.07.2015 02:00 19,4 C 91 % 1016,3 hPa 0,0 l/m N 0,00 h 0 W/m 0,0 km/h (0 Bft)
05.07.2015 03:00 18,9 C 93 % 1015,9 hPa 0,0 l/m N 0,00 h 0 W/m 0,0 km/h (0 Bft)
05.07.2015 04:00 18,4 C 93 % 1015,7 hPa 0,0 l/m N 0,00 h 0 W/m 0,1 km/h (0 Bft)
05.07.2015 05:00 18,1 C 94 % 1015,5 hPa 0,0 l/m N 0,00 h 9 W/m 0,0 km/h (0 Bft)
05.07.2015 06:00 18,3 C 94 % 1015,4 hPa 0,0 l/m N 0,00 h 47 W/m 0,0 km/h (0 Bft)
05.07.2015 07:00 20,9 C 89 % 1015,4 hPa 0,0 l/m N 0,58 h 167 W/m 0,0 km/h (0 Bft)
05.07.2015 08:00 23,8 C 80 % 1015,2 hPa 0,0 l/m N 1,00 h 321 W/m 0,0 km/h (0 Bft)
05.07.2015 09:00 26,4 C 69 % 1015,0 hPa 0,0 l/m NW 1,00 h 485 W/m 1,9 km/h (1 Bft)
05.07.2015 10:00 28,5 C 58 % 1014,6 hPa 0,0 l/m SW 0,92 h 609 W/m 6,8 km/h (2 Bft)
05.07.2015 11:00 29,7 C 55 % 1014,2 hPa 0,0 l/m SW 1,00 h 751 W/m 8,9 km/h (2 Bft)
05.07.2015 12:00 31,7 C 49 % 1013,6 hPa 0,0 l/m O-SO 1,00 h 826 W/m 10,6 km/h (2 Bft)
05.07.2015 13:00 33,0 C 44 % 1013,2 hPa 0,0 l/m S-SW 1,00 h 866 W/m 9,4 km/h (2 Bft)
05.07.2015 14:00 33,5 C 40 % 1012,8 hPa 0,0 l/m S 1,00 h 848 W/m 6,4 km/h (2 Bft)
05.07.2015 15:00 34,4 C 37 % 1012,3 hPa 0,0 l/m SW 1,00 h 776 W/m 8,5 km/h (2 Bft)
05.07.2015 16:00 34,8 C 35 % 1011,6 hPa 0,0 l/m S-SW 1,00 h 672 W/m 12,1 km/h (2 Bft)
05.07.2015 17:00 34,2 C 39 % 1011,0 hPa 0,0 l/m SW 1,00 h 544 W/m 14,2 km/h (3 Bft)
05.07.2015 18:00 32,9 C 46 % 1010,7 hPa 0,0 l/m SW 1,00 h 387 W/m 11,4 km/h (2 Bft)
05.07.2015 19:00 31,1 C 53 % 1010,3 hPa 0,0 l/m SW 1,00 h 233 W/m 7,5 km/h (2 Bft)
05.07.2015 20:00 28,6 C 66 % 1009,9 hPa 0,0 l/m SW 0,25 h 52 W/m 2,8 km/h (1 Bft)
05.07.2015 21:00 27,0 C 68 % 1010,4 hPa 0,0 l/m SW 0,17 h 11 W/m 5,2 km/h (1 Bft)
05.07.2015 22:00 27,3 C 66 % 1011,0 hPa 0,0 l/m W-SW 0,00 h 0 W/m 14,9 km/h (3 Bft)
05.07.2015 23:00 27,8 C 56 % 1011,5 hPa 0,0 l/m W 0,00 h 0 W/m 16,8 km/h (3 Bft)
Min-Datum _ 29.06.15 30.06.15 05.07.15 - - - - 29.06.15
_ Min-Zeit 04:35 16:15 20:05 - - - - 00:00
Minimum _ 11,9 C 31 % 1009,8 hPa - - - - 0,0 km/h (0 Bft)
Max-Datum _ 05.07.15 03.07.15 03.07.15 03.07.15 - 29.06.15 29.06.15 03.07.15
_ Max-Zeit 16:20 11:05 09:05 09:30 - 09:50 13:00 09:15
Maximum _ 35,1 C 98 % 1021,3 hPa 28,0 l/m - 0,08 h 1039 W/m 40,2 km/h
SW (6 Bft)
Durchschnitt _ 23,6 C 69 % 1017,2 hPa #28,2 l/m O #77:05 h 415 W/m 5,1 km/h (1 Bft)